createdAt,value
2019-04-27T00:00:03.711Z,996.50
2019-04-27T00:01:05.255Z,996.50
2019-04-27T00:02:05.770Z,996.47
2019-04-27T00:03:06.108Z,996.47
2019-04-27T00:04:04.087Z,996.39
2019-04-27T00:05:03.332Z,996.38
2019-04-27T00:06:05.360Z,996.33
2019-04-27T00:07:04.290Z,996.33
2019-04-27T00:08:03.445Z,996.35
2019-04-27T00:09:03.633Z,996.27
2019-04-27T00:10:03.862Z,996.36
2019-04-27T00:11:08.388Z,996.30
2019-04-27T00:12:05.700Z,996.37
2019-04-27T00:13:06.068Z,996.33
2019-04-27T00:14:04.574Z,996.31
2019-04-27T00:15:04.757Z,996.32
2019-04-27T00:16:09.710Z,996.33
2019-04-27T00:17:07.054Z,996.37
2019-04-27T00:18:05.180Z,996.34
2019-04-27T00:19:05.354Z,996.30
2019-04-27T00:20:05.558Z,996.41
2019-04-27T00:21:05.721Z,996.43
2019-04-27T00:22:05.869Z,996.41
2019-04-27T00:23:06.036Z,996.43
2019-04-27T00:24:06.186Z,996.41
2019-04-27T00:25:06.584Z,996.41
2019-04-27T00:26:06.482Z,996.41
2019-04-27T00:27:06.638Z,996.39
2019-04-27T00:28:06.780Z,996.45
2019-04-27T00:29:06.943Z,996.41
2019-04-27T00:30:07.122Z,996.43
2019-04-27T00:31:07.285Z,996.39
2019-04-27T00:32:07.425Z,996.40
2019-04-27T00:33:07.592Z,996.39
2019-04-27T00:34:07.739Z,996.37
2019-04-27T00:35:07.911Z,996.43
2019-04-27T00:36:08.057Z,996.34
2019-04-27T00:37:08.200Z,996.37
2019-04-27T00:38:08.340Z,996.40
2019-04-27T00:39:08.484Z,996.35
2019-04-27T00:40:08.634Z,996.38
2019-04-27T00:41:08.802Z,996.34
2019-04-27T00:42:08.964Z,996.39
2019-04-27T00:43:09.085Z,996.34
2019-04-27T00:44:09.223Z,996.34
2019-04-27T00:45:09.364Z,996.32
2019-04-27T00:46:09.585Z,996.34
2019-04-27T00:47:09.730Z,996.33
2019-04-27T00:48:09.885Z,996.30
2019-04-27T00:49:10.044Z,996.31
2019-04-27T00:50:10.196Z,996.30
2019-04-27T00:51:10.585Z,996.40
2019-04-27T00:52:10.565Z,996.29
2019-04-27T00:53:10.704Z,996.30
2019-04-27T00:54:10.861Z,996.30
2019-04-27T00:55:11.012Z,996.30
2019-04-27T00:56:11.594Z,996.21
2019-04-27T00:57:12.970Z,996.24
2019-04-27T00:58:13.041Z,996.21
2019-04-27T00:59:13.643Z,996.18
2019-04-27T01:00:13.395Z,996.17
2019-04-27T01:01:12.704Z,996.16
2019-04-27T01:02:13.441Z,996.14
2019-04-27T01:03:13.956Z,996.16
2019-04-27T01:04:13.640Z,996.13
2019-04-27T01:05:13.093Z,996.14
2019-04-27T01:06:14.907Z,996.21
2019-04-27T01:07:14.343Z,996.15
2019-04-27T01:08:14.167Z,996.16
2019-04-27T01:09:13.446Z,996.14
2019-04-27T01:10:14.493Z,996.21
2019-04-27T01:11:14.093Z,996.14
2019-04-27T01:12:14.879Z,996.15
2019-04-27T01:13:14.118Z,996.11
2019-04-27T01:14:14.280Z,996.10
2019-04-27T01:15:14.407Z,996.05
2019-04-27T01:16:17.352Z,996.08
2019-04-27T01:17:18.834Z,996.07
2019-04-27T01:18:15.625Z,996.03
2019-04-27T01:19:16.187Z,996.08
2019-04-27T01:20:15.311Z,996.14
2019-04-27T01:21:15.495Z,996.06
2019-04-27T01:22:15.616Z,996.04
2019-04-27T01:23:15.773Z,996.06
2019-04-27T01:24:15.950Z,996.03
2019-04-27T01:25:16.128Z,996.04
2019-04-27T01:26:16.281Z,996.01
2019-04-27T01:27:16.418Z,995.97
2019-04-27T01:28:16.562Z,995.98
2019-04-27T01:29:16.699Z,996.01
2019-04-27T01:30:16.850Z,995.96
2019-04-27T01:31:16.975Z,995.92
2019-04-27T01:32:18.638Z,995.92
2019-04-27T01:33:19.694Z,996.00
2019-04-27T01:34:19.130Z,995.96
2019-04-27T01:35:18.693Z,995.96
2019-04-27T01:36:19.053Z,995.93
2019-04-27T01:37:19.563Z,995.90
2019-04-27T01:38:20.088Z,995.91
2019-04-27T01:39:18.956Z,995.91
2019-04-27T01:40:19.517Z,995.90
2019-04-27T01:41:19.233Z,995.89
2019-04-27T01:42:19.882Z,995.93
2019-04-27T01:43:19.003Z,995.91
2019-04-27T01:44:19.476Z,995.84
2019-04-27T01:45:20.306Z,995.89
2019-04-27T01:46:19.668Z,995.91
2019-04-27T01:47:21.596Z,995.89
2019-04-27T01:48:23.871Z,995.83
2019-04-27T01:49:21.976Z,995.85
2019-04-27T01:50:20.188Z,995.80
2019-04-27T01:51:21.057Z,995.81
2019-04-27T01:52:21.600Z,995.79
2019-04-27T01:53:20.728Z,995.79
2019-04-27T01:54:20.912Z,995.80
2019-04-27T01:55:21.078Z,995.74
2019-04-27T01:56:21.240Z,995.76
2019-04-27T01:57:22.092Z,995.77
2019-04-27T01:58:21.596Z,995.76
2019-04-27T01:59:21.750Z,995.74
2019-04-27T02:00:21.913Z,995.70
2019-04-27T02:01:22.086Z,995.73
2019-04-27T02:02:23.097Z,995.78
2019-04-27T02:03:22.473Z,995.75
2019-04-27T02:04:22.613Z,995.79
2019-04-27T02:05:23.106Z,995.72
2019-04-27T02:06:22.910Z,995.70
2019-04-27T02:07:23.089Z,995.74
2019-04-27T02:08:23.271Z,995.69
2019-04-27T02:09:23.405Z,995.70
2019-04-27T02:10:23.601Z,995.73
2019-04-27T02:11:23.774Z,995.70
2019-04-27T02:12:23.931Z,995.62
2019-04-27T02:13:24.062Z,995.65
2019-04-27T02:14:24.228Z,995.59
2019-04-27T02:15:24.383Z,995.64
2019-04-27T02:16:24.536Z,995.67
2019-04-27T02:17:24.670Z,995.61
2019-04-27T02:18:34.675Z,995.59
2019-04-27T02:19:27.033Z,995.67
2019-04-27T02:20:26.099Z,995.58
2019-04-27T02:21:25.473Z,995.65
2019-04-27T02:22:25.624Z,995.60
2019-04-27T02:23:25.740Z,995.60
2019-04-27T02:24:26.588Z,995.57
2019-04-27T02:25:26.198Z,995.59
2019-04-27T02:26:26.604Z,995.50
2019-04-27T02:27:26.440Z,995.54
2019-04-27T02:28:26.570Z,995.52
2019-04-27T02:29:26.693Z,995.43
2019-04-27T02:30:26.827Z,995.41
2019-04-27T02:31:29.493Z,995.40
2019-04-27T02:32:29.071Z,995.55
2019-04-27T02:33:29.917Z,995.47
2019-04-27T02:34:30.187Z,995.38
2019-04-27T02:35:29.972Z,995.48
2019-04-27T02:36:30.344Z,995.39
2019-04-27T02:37:30.426Z,995.45
2019-04-27T02:38:30.512Z,995.49
2019-04-27T02:39:29.799Z,995.46
2019-04-27T02:40:30.534Z,995.46
2019-04-27T02:41:29.867Z,995.39
2019-04-27T02:42:29.883Z,995.41
2019-04-27T02:43:29.624Z,995.45
2019-04-27T02:44:30.308Z,995.42
2019-04-27T02:45:30.433Z,995.36
2019-04-27T02:46:31.577Z,995.41
2019-04-27T02:47:30.604Z,995.43
2019-04-27T02:48:30.015Z,995.38
2019-04-27T02:49:30.520Z,995.43
2019-04-27T02:50:31.221Z,995.40
2019-04-27T02:51:30.353Z,995.35
2019-04-27T02:52:30.487Z,995.35
2019-04-27T02:53:30.627Z,995.37
2019-04-27T02:54:30.772Z,995.36
2019-04-27T02:55:30.903Z,995.38
2019-04-27T02:56:32.078Z,995.37
2019-04-27T02:57:31.177Z,995.38
2019-04-27T02:58:31.722Z,995.37
2019-04-27T02:59:32.525Z,995.31
2019-04-27T03:00:31.953Z,995.34
2019-04-27T03:01:32.781Z,995.36
2019-04-27T03:02:32.015Z,995.29
2019-04-27T03:03:32.117Z,995.32
2019-04-27T03:04:33.373Z,995.32
2019-04-27T03:05:32.484Z,995.32
2019-04-27T03:06:32.618Z,995.29
2019-04-27T03:07:32.762Z,995.26
2019-04-27T03:08:32.936Z,995.25
2019-04-27T03:09:33.117Z,995.22
2019-04-27T03:10:33.259Z,995.20
2019-04-27T03:11:34.110Z,995.24
2019-04-27T03:12:33.630Z,995.18
2019-04-27T03:13:33.783Z,995.21
2019-04-27T03:14:36.381Z,995.22
2019-04-27T03:15:35.170Z,995.14
2019-04-27T03:16:34.304Z,995.22
2019-04-27T03:17:34.454Z,995.18
2019-04-27T03:18:35.603Z,995.11
2019-04-27T03:19:34.756Z,995.13
2019-04-27T03:20:34.917Z,995.17
2019-04-27T03:21:35.068Z,995.22
2019-04-27T03:22:35.215Z,995.18
2019-04-27T03:23:35.353Z,995.22
2019-04-27T03:24:35.516Z,995.21
2019-04-27T03:25:35.639Z,995.13
2019-04-27T03:26:35.792Z,995.09
2019-04-27T03:27:35.931Z,995.10
2019-04-27T03:28:36.076Z,995.13
2019-04-27T03:29:36.197Z,995.13
2019-04-27T03:30:36.697Z,995.06
2019-04-27T03:31:37.478Z,995.09
2019-04-27T03:32:37.702Z,995.06
2019-04-27T03:33:36.942Z,995.10
2019-04-27T03:34:41.483Z,995.07
2019-04-27T03:35:38.575Z,994.95
2019-04-27T03:36:39.546Z,995.08
2019-04-27T03:37:40.421Z,995.03
2019-04-27T03:38:39.668Z,995.02
2019-04-27T03:39:39.700Z,994.99
2019-04-27T03:40:40.334Z,995.03
2019-04-27T03:41:41.185Z,994.95
2019-04-27T03:42:40.358Z,995.04
2019-04-27T03:43:40.369Z,994.90
2019-04-27T03:44:40.062Z,994.98
2019-04-27T03:45:39.951Z,994.94
2019-04-27T03:46:40.347Z,994.93
2019-04-27T03:47:40.663Z,994.92
2019-04-27T03:48:41.024Z,994.96
2019-04-27T03:49:41.668Z,995.02
2019-04-27T03:50:42.974Z,994.96
2019-04-27T03:51:41.323Z,994.93
2019-04-27T03:52:40.481Z,994.98
2019-04-27T03:53:40.626Z,994.94
2019-04-27T03:54:40.828Z,994.90
2019-04-27T03:55:42.780Z,994.87
2019-04-27T03:56:43.100Z,994.90
2019-04-27T03:57:41.324Z,994.89
2019-04-27T03:58:41.617Z,994.88
2019-04-27T03:59:41.677Z,994.89
2019-04-27T04:00:41.858Z,994.97
2019-04-27T04:01:42.048Z,994.87
2019-04-27T04:02:42.208Z,994.92
2019-04-27T04:03:42.399Z,994.86
2019-04-27T04:04:42.540Z,994.84
2019-04-27T04:05:42.679Z,994.80
2019-04-27T04:06:42.838Z,994.83
2019-04-27T04:07:42.958Z,994.78
2019-04-27T04:08:43.095Z,994.74
2019-04-27T04:09:43.222Z,994.80
2019-04-27T04:10:43.355Z,994.72
2019-04-27T04:11:43.640Z,994.80
2019-04-27T04:12:43.775Z,994.71
2019-04-27T04:13:43.941Z,994.73
2019-04-27T04:14:44.099Z,994.70
2019-04-27T04:15:44.247Z,994.74
2019-04-27T04:16:44.441Z,994.70
2019-04-27T04:17:44.617Z,994.77
2019-04-27T04:18:45.607Z,994.75
2019-04-27T04:19:54.441Z,994.72
2019-04-27T04:20:47.213Z,994.68
2019-04-27T04:21:46.441Z,994.63
2019-04-27T04:22:45.586Z,994.69
2019-04-27T04:23:45.749Z,994.65
2019-04-27T04:24:45.876Z,994.58
2019-04-27T04:25:46.011Z,994.59
2019-04-27T04:26:47.106Z,994.56
2019-04-27T04:27:46.424Z,994.48
2019-04-27T04:28:47.114Z,994.53
2019-04-27T04:29:49.250Z,994.40
2019-04-27T04:30:46.965Z,994.31
2019-04-27T04:31:47.097Z,994.28
2019-04-27T04:32:51.678Z,994.25
2019-04-27T04:33:49.237Z,994.17
2019-04-27T04:34:50.101Z,994.12
2019-04-27T04:35:49.646Z,994.12
2019-04-27T04:36:50.362Z,994.18
2019-04-27T04:37:52.577Z,994.22
2019-04-27T04:38:50.460Z,994.24
2019-04-27T04:39:53.099Z,994.18
2019-04-27T04:40:50.619Z,994.09
2019-04-27T04:41:50.954Z,994.15
2019-04-27T04:42:50.307Z,994.05
2019-04-27T04:43:49.420Z,994.05
2019-04-27T04:44:50.206Z,993.98
2019-04-27T04:45:50.707Z,993.96
2019-04-27T04:46:50.279Z,993.90
2019-04-27T04:47:51.008Z,993.79
2019-04-27T04:48:50.437Z,993.67
2019-04-27T04:50:07.557Z,993.57
2019-04-27T04:50:52.598Z,993.44
2019-04-27T04:51:50.816Z,993.40
2019-04-27T04:52:50.956Z,993.36
2019-04-27T04:53:51.905Z,993.30
2019-04-27T04:54:52.313Z,993.22
2019-04-27T04:55:51.417Z,993.14
2019-04-27T04:56:51.670Z,993.12
2019-04-27T04:57:51.821Z,993.11
2019-04-27T04:58:52.022Z,993.05
2019-04-27T04:59:52.214Z,993.08
2019-04-27T05:00:52.356Z,992.94
2019-04-27T05:01:52.479Z,992.98
2019-04-27T05:02:52.721Z,992.90
2019-04-27T05:03:52.846Z,992.88
2019-04-27T05:04:53.096Z,992.85
2019-04-27T05:05:53.224Z,992.79
2019-04-27T05:06:53.355Z,992.79
2019-04-27T05:07:53.516Z,992.68
2019-04-27T05:08:53.672Z,992.68
2019-04-27T05:09:54.123Z,992.66
2019-04-27T05:10:54.609Z,992.71
2019-04-27T05:11:54.225Z,992.69
2019-04-27T05:12:54.375Z,992.68
2019-04-27T05:13:54.507Z,992.83
2019-04-27T05:14:54.774Z,993.05
2019-04-27T05:15:54.879Z,993.02
2019-04-27T05:16:55.018Z,992.85
2019-04-27T05:17:55.138Z,992.73
2019-04-27T05:18:55.278Z,992.67
2019-04-27T05:19:55.547Z,992.54
2019-04-27T05:20:55.669Z,992.55
2019-04-27T05:21:55.915Z,992.57
2019-04-27T05:22:56.040Z,992.64
2019-04-27T05:23:56.292Z,992.66
2019-04-27T05:24:56.399Z,992.74
2019-04-27T05:25:56.657Z,992.69
2019-04-27T05:26:56.798Z,992.77
2019-04-27T05:27:56.927Z,992.76
2019-04-27T05:28:59.125Z,992.89
2019-04-27T05:29:57.325Z,992.89
2019-04-27T05:30:58.689Z,993.08
2019-04-27T05:31:59.192Z,993.15
2019-04-27T05:32:58.574Z,993.09
2019-04-27T05:33:59.366Z,993.09
2019-04-27T05:34:59.514Z,993.10
2019-04-27T05:35:59.152Z,992.99
2019-04-27T05:37:01.134Z,992.91
2019-04-27T05:38:00.898Z,992.94
2019-04-27T05:39:00.910Z,992.81
2019-04-27T05:39:59.003Z,992.62
2019-04-27T05:40:59.638Z,992.47
2019-04-27T05:41:59.676Z,992.44
2019-04-27T05:43:00.421Z,992.51
2019-04-27T05:44:03.281Z,992.50
2019-04-27T05:45:00.791Z,992.29
2019-04-27T05:46:01.123Z,992.15
2019-04-27T05:47:01.093Z,992.13
2019-04-27T05:48:00.697Z,992.07
2019-04-27T05:49:06.311Z,992.07
2019-04-27T05:50:02.697Z,992.17
2019-04-27T05:51:02.066Z,992.18
2019-04-27T05:52:02.029Z,992.33
2019-04-27T05:53:01.145Z,992.45
2019-04-27T05:54:01.285Z,992.41
2019-04-27T05:55:01.630Z,992.60
2019-04-27T05:56:01.779Z,992.40
2019-04-27T05:57:01.945Z,992.42
2019-04-27T05:58:02.059Z,992.45
2019-04-27T05:59:02.316Z,992.55
2019-04-27T06:00:03.463Z,992.48
2019-04-27T06:01:02.685Z,992.47
2019-04-27T06:02:03.846Z,992.35
2019-04-27T06:03:02.940Z,992.24
2019-04-27T06:04:03.138Z,992.27
2019-04-27T06:05:03.289Z,992.28
2019-04-27T06:06:03.442Z,992.30
2019-04-27T06:07:03.643Z,992.36
2019-04-27T06:08:03.862Z,992.36
2019-04-27T06:09:04.004Z,992.33
2019-04-27T06:10:04.144Z,992.32
2019-04-27T06:11:04.272Z,992.30
2019-04-27T06:12:04.432Z,992.24
2019-04-27T06:13:04.619Z,992.36
2019-04-27T06:14:04.785Z,992.40
2019-04-27T06:15:04.949Z,992.38
2019-04-27T06:16:05.086Z,992.42
2019-04-27T06:17:05.273Z,992.48
2019-04-27T06:18:05.644Z,992.48
2019-04-27T06:19:05.561Z,992.47
2019-04-27T06:20:06.636Z,992.61
2019-04-27T06:21:05.881Z,992.48
2019-04-27T06:22:06.015Z,992.53
2019-04-27T06:23:08.863Z,992.57
2019-04-27T06:24:06.307Z,992.59
2019-04-27T06:25:06.499Z,992.56
2019-04-27T06:26:09.197Z,992.54
2019-04-27T06:27:09.401Z,992.49
2019-04-27T06:28:07.078Z,992.49
2019-04-27T06:29:07.210Z,992.51
2019-04-27T06:30:09.222Z,992.51
2019-04-27T06:31:08.810Z,992.59
2019-04-27T06:32:09.020Z,992.60
2019-04-27T06:33:09.419Z,992.64
2019-04-27T06:34:09.794Z,992.67
2019-04-27T06:35:12.088Z,992.59
2019-04-27T06:36:10.015Z,992.62
2019-04-27T06:37:09.533Z,992.62
2019-04-27T06:38:11.562Z,992.69
2019-04-27T06:39:09.781Z,992.67
2019-04-27T06:40:11.136Z,992.73
2019-04-27T06:41:10.138Z,992.69
2019-04-27T06:42:18.158Z,992.75
2019-04-27T06:43:12.091Z,992.77
2019-04-27T06:44:11.494Z,992.76
2019-04-27T06:45:11.448Z,992.80
2019-04-27T06:46:10.578Z,992.87
2019-04-27T06:47:10.730Z,992.75
2019-04-27T06:48:10.895Z,992.76
2019-04-27T06:49:11.383Z,992.73
2019-04-27T06:50:11.296Z,992.81
2019-04-27T06:51:11.480Z,992.78
2019-04-27T06:52:11.631Z,992.76
2019-04-27T06:53:11.764Z,992.85
2019-04-27T06:54:12.915Z,992.80
2019-04-27T06:55:12.164Z,992.71
2019-04-27T06:56:12.309Z,992.81
2019-04-27T06:57:13.136Z,992.80
2019-04-27T06:58:12.617Z,992.82
2019-04-27T06:59:12.758Z,992.81
2019-04-27T07:00:12.897Z,992.80
2019-04-27T07:01:13.035Z,992.83
2019-04-27T07:02:13.191Z,992.75
2019-04-27T07:03:13.331Z,992.72
2019-04-27T07:04:13.483Z,992.81
2019-04-27T07:05:13.666Z,992.85
2019-04-27T07:06:13.849Z,992.82
2019-04-27T07:07:15.642Z,992.81
2019-04-27T07:08:14.136Z,992.81
2019-04-27T07:09:14.294Z,992.87
2019-04-27T07:10:14.446Z,992.84
2019-04-27T07:11:14.651Z,992.84
2019-04-27T07:12:14.803Z,992.81
2019-04-27T07:13:14.956Z,992.86
2019-04-27T07:14:15.086Z,992.82
2019-04-27T07:15:15.612Z,992.86
2019-04-27T07:16:16.425Z,992.89
2019-04-27T07:17:15.683Z,992.96
2019-04-27T07:18:15.814Z,993.03
2019-04-27T07:19:15.973Z,992.94
2019-04-27T07:20:16.126Z,993.02
2019-04-27T07:21:20.097Z,992.94
2019-04-27T07:22:20.023Z,993.01
2019-04-27T07:23:16.650Z,992.98
2019-04-27T07:24:16.809Z,992.98
2019-04-27T07:25:18.899Z,992.93
2019-04-27T07:26:17.182Z,992.98
2019-04-27T07:27:19.193Z,993.01
2019-04-27T07:28:19.032Z,993.10
2019-04-27T07:29:19.477Z,993.11
2019-04-27T07:30:19.128Z,993.06
2019-04-27T07:31:19.350Z,993.11
2019-04-27T07:32:19.417Z,993.04
2019-04-27T07:33:19.449Z,993.13
2019-04-27T07:34:19.065Z,993.15
2019-04-27T07:35:19.809Z,993.17
2019-04-27T07:36:18.943Z,993.14
2019-04-27T07:37:20.159Z,993.16
2019-04-27T07:38:41.045Z,993.24
2019-04-27T07:39:19.540Z,993.20
2019-04-27T07:40:19.720Z,993.25
2019-04-27T07:41:20.650Z,993.12
2019-04-27T07:42:21.901Z,993.22
2019-04-27T07:43:22.139Z,993.25
2019-04-27T07:44:20.374Z,993.23
2019-04-27T07:45:21.554Z,993.23
2019-04-27T07:46:20.673Z,993.23
2019-04-27T07:47:21.669Z,993.18
2019-04-27T07:48:21.078Z,993.20
2019-04-27T07:49:21.261Z,993.23
2019-04-27T07:50:21.439Z,993.21
2019-04-27T07:51:31.500Z,993.29
2019-04-27T07:52:23.798Z,993.27
2019-04-27T07:53:21.895Z,993.19
2019-04-27T07:54:22.061Z,993.21
2019-04-27T07:55:22.253Z,993.19
2019-04-27T07:56:22.423Z,993.17
2019-04-27T07:57:22.575Z,993.19
2019-04-27T07:58:22.760Z,993.14
2019-04-27T07:59:23.662Z,993.23
2019-04-27T08:00:23.643Z,993.19
2019-04-27T08:01:24.161Z,993.25
2019-04-27T08:02:23.406Z,993.22
2019-04-27T08:03:23.579Z,993.24
2019-04-27T08:04:23.758Z,993.23
2019-04-27T08:05:23.930Z,993.18
2019-04-27T08:06:24.089Z,993.26
2019-04-27T08:07:24.260Z,993.22
2019-04-27T08:08:24.661Z,993.21
2019-04-27T08:09:24.559Z,993.15
2019-04-27T08:10:24.723Z,993.18
2019-04-27T08:11:24.898Z,993.20
2019-04-27T08:12:25.088Z,993.25
2019-04-27T08:13:25.241Z,993.22
2019-04-27T08:14:25.360Z,993.24
2019-04-27T08:15:25.537Z,993.29
2019-04-27T08:16:25.678Z,993.16
2019-04-27T08:17:28.333Z,993.17
2019-04-27T08:18:26.086Z,993.18
2019-04-27T08:19:27.152Z,993.20
2019-04-27T08:20:26.450Z,993.30
2019-04-27T08:21:26.606Z,993.25
2019-04-27T08:22:26.746Z,993.31
2019-04-27T08:23:26.925Z,993.28
2019-04-27T08:24:29.378Z,993.33
2019-04-27T08:25:28.685Z,993.29
2019-04-27T08:26:28.690Z,993.33
2019-04-27T08:27:29.436Z,993.33
2019-04-27T08:28:28.760Z,993.30
2019-04-27T08:29:29.941Z,993.32
2019-04-27T08:30:29.423Z,993.34
2019-04-27T08:31:28.725Z,993.38
2019-04-27T08:32:29.565Z,993.36
2019-04-27T08:33:29.037Z,993.30
2019-04-27T08:34:29.876Z,993.43
2019-04-27T08:35:32.424Z,993.37
2019-04-27T08:36:30.110Z,993.41
2019-04-27T08:37:29.229Z,993.40
2019-04-27T08:38:29.396Z,993.45
2019-04-27T08:39:29.647Z,993.39
2019-04-27T08:40:30.751Z,993.34
2019-04-27T08:41:29.889Z,993.37
2019-04-27T08:42:30.053Z,993.41
2019-04-27T08:43:31.157Z,993.37
2019-04-27T08:44:31.821Z,993.38
2019-04-27T08:45:32.181Z,993.37
2019-04-27T08:46:30.829Z,993.43
2019-04-27T08:47:30.957Z,993.37
2019-04-27T08:48:34.720Z,993.33
2019-04-27T08:49:33.333Z,993.38
2019-04-27T08:50:31.531Z,993.32
2019-04-27T08:51:31.675Z,993.38
2019-04-27T08:52:31.821Z,993.30
2019-04-27T08:53:31.940Z,993.31
2019-04-27T08:54:32.175Z,993.27
2019-04-27T08:55:32.358Z,993.28
2019-04-27T08:56:32.492Z,993.27
2019-04-27T08:57:32.631Z,993.20
2019-04-27T08:58:32.751Z,993.24
2019-04-27T08:59:32.879Z,993.23
2019-04-27T09:00:33.025Z,993.21
2019-04-27T09:01:33.191Z,993.19
2019-04-27T09:02:41.558Z,993.19
2019-04-27T09:03:35.446Z,993.23
2019-04-27T09:04:33.661Z,993.16
2019-04-27T09:05:33.803Z,993.17
2019-04-27T09:06:33.938Z,993.21
2019-04-27T09:07:34.093Z,993.22
2019-04-27T09:08:35.165Z,993.24
2019-04-27T09:09:34.392Z,993.21
2019-04-27T09:10:34.553Z,993.27
2019-04-27T09:11:35.665Z,993.21
2019-04-27T09:12:34.930Z,993.25
2019-04-27T09:13:35.064Z,993.28
2019-04-27T09:14:36.159Z,993.27
2019-04-27T09:15:35.412Z,993.26
2019-04-27T09:16:35.660Z,993.23
2019-04-27T09:17:35.830Z,993.19
2019-04-27T09:18:36.010Z,993.22
2019-04-27T09:19:36.163Z,993.22
2019-04-27T09:20:36.303Z,993.21
2019-04-27T09:21:36.446Z,993.16
2019-04-27T09:22:36.604Z,993.20
2019-04-27T09:23:38.839Z,993.22
2019-04-27T09:24:36.975Z,993.14
2019-04-27T09:25:37.111Z,993.17
2019-04-27T09:26:39.040Z,993.09
2019-04-27T09:27:39.075Z,993.19
2019-04-27T09:28:38.866Z,993.18
2019-04-27T09:29:39.533Z,993.13
2019-04-27T09:30:39.388Z,993.11
2019-04-27T09:31:39.668Z,993.14
2019-04-27T09:32:38.411Z,993.07
2019-04-27T09:33:39.528Z,993.04
2019-04-27T09:34:38.659Z,992.99
2019-04-27T09:35:38.791Z,993.06
2019-04-27T09:36:38.924Z,993.06
2019-04-27T09:37:39.071Z,993.01
2019-04-27T09:38:39.231Z,992.99
2019-04-27T09:39:39.381Z,993.03
2019-04-27T09:40:39.543Z,992.98
2019-04-27T09:41:39.722Z,992.96
2019-04-27T09:42:39.852Z,992.94
2019-04-27T09:43:40.669Z,992.88
2019-04-27T09:44:40.291Z,992.90
2019-04-27T09:45:40.455Z,992.87
2019-04-27T09:46:40.642Z,992.88
2019-04-27T09:47:41.677Z,992.85
2019-04-27T09:48:40.919Z,992.81
2019-04-27T09:49:41.066Z,992.85
2019-04-27T09:50:41.675Z,992.79
2019-04-27T09:51:42.166Z,992.76
2019-04-27T09:52:41.675Z,992.73
2019-04-27T09:53:41.821Z,992.74
2019-04-27T09:54:41.964Z,992.77
2019-04-27T09:55:42.119Z,992.78
2019-04-27T09:56:42.286Z,992.82
2019-04-27T09:57:42.447Z,992.78
2019-04-27T09:58:43.164Z,992.81
2019-04-27T09:59:42.815Z,992.77
2019-04-27T10:00:42.984Z,992.74
2019-04-27T10:01:43.134Z,992.80
2019-04-27T10:02:43.303Z,992.67
2019-04-27T10:03:43.439Z,992.71
2019-04-27T10:04:43.600Z,992.70
2019-04-27T10:05:43.759Z,992.66
2019-04-27T10:06:43.912Z,992.67
2019-04-27T10:07:45.724Z,992.65
2019-04-27T10:08:44.269Z,992.66
2019-04-27T10:09:45.465Z,992.64
2019-04-27T10:10:45.973Z,992.71
2019-04-27T10:11:44.702Z,992.65
2019-04-27T10:12:46.487Z,992.60
2019-04-27T10:13:46.545Z,992.58
2019-04-27T10:14:47.657Z,992.53
2019-04-27T10:15:46.470Z,992.55
2019-04-27T10:16:46.918Z,992.55
2019-04-27T10:17:45.784Z,992.51
2019-04-27T10:18:45.970Z,992.51
2019-04-27T10:19:46.665Z,992.45
2019-04-27T10:20:58.723Z,992.50
2019-04-27T10:21:48.539Z,992.46
2019-04-27T10:22:46.829Z,992.50
2019-04-27T10:23:47.238Z,992.50
2019-04-27T10:24:48.169Z,992.46
2019-04-27T10:25:47.397Z,992.50
2019-04-27T10:26:47.557Z,992.44
2019-04-27T10:27:47.719Z,992.48
2019-04-27T10:28:47.911Z,992.49
2019-04-27T10:29:48.663Z,992.42
2019-04-27T10:30:48.190Z,992.43
2019-04-27T10:31:48.397Z,992.43
2019-04-27T10:32:48.601Z,992.43
2019-04-27T10:33:48.759Z,992.44
2019-04-27T10:34:48.898Z,992.49
2019-04-27T10:35:49.676Z,992.50
2019-04-27T10:36:50.149Z,992.41
2019-04-27T10:37:50.399Z,992.38
2019-04-27T10:38:49.684Z,992.43
2019-04-27T10:39:49.833Z,992.39
2019-04-27T10:40:50.689Z,992.43
2019-04-27T10:41:50.193Z,992.46
2019-04-27T10:42:50.346Z,992.48
2019-04-27T10:43:50.529Z,992.45
2019-04-27T10:44:50.663Z,992.46
2019-04-27T10:45:50.810Z,992.48
2019-04-27T10:46:50.935Z,992.43
2019-04-27T10:47:51.059Z,992.47
2019-04-27T10:48:51.262Z,992.43
2019-04-27T10:49:51.401Z,992.32
2019-04-27T10:50:51.540Z,992.39
2019-04-27T10:51:52.198Z,992.36
2019-04-27T10:52:53.691Z,992.30
2019-04-27T10:53:53.050Z,992.26
2019-04-27T10:54:52.671Z,992.20
2019-04-27T10:55:52.462Z,992.17
2019-04-27T10:56:52.605Z,992.10
2019-04-27T10:57:52.751Z,992.12
2019-04-27T10:58:52.927Z,992.10
2019-04-27T10:59:53.188Z,992.09
2019-04-27T11:00:54.172Z,992.02
2019-04-27T11:01:55.937Z,992.04
2019-04-27T11:02:53.631Z,992.01
2019-04-27T11:03:55.499Z,992.04
2019-04-27T11:04:54.016Z,992.00
2019-04-27T11:05:54.197Z,992.19
2019-04-27T11:06:54.342Z,992.16
2019-04-27T11:07:56.378Z,992.27
2019-04-27T11:08:56.112Z,992.55
2019-04-27T11:09:54.995Z,992.43
2019-04-27T11:10:56.396Z,992.56
2019-04-27T11:11:56.610Z,992.69
2019-04-27T11:12:56.077Z,992.76
2019-04-27T11:14:00.704Z,992.88
2019-04-27T11:14:55.981Z,992.94
2019-04-27T11:15:56.112Z,992.96
2019-04-27T11:16:56.286Z,992.97
2019-04-27T11:17:56.441Z,992.94
2019-04-27T11:18:58.702Z,992.92
2019-04-27T11:19:56.868Z,993.00
2019-04-27T11:20:57.192Z,993.07
2019-04-27T11:21:57.224Z,993.10
2019-04-27T11:23:07.205Z,993.11
2019-04-27T11:24:00.174Z,993.05
2019-04-27T11:24:57.643Z,993.03
2019-04-27T11:25:57.824Z,993.03
2019-04-27T11:26:57.960Z,993.07
2019-04-27T11:27:58.112Z,992.97
2019-04-27T11:28:58.272Z,993.02
2019-04-27T11:29:58.416Z,993.10
2019-04-27T11:30:58.693Z,993.07
2019-04-27T11:31:58.735Z,993.05
2019-04-27T11:32:59.358Z,993.13
2019-04-27T11:34:00.686Z,993.10
2019-04-27T11:34:59.330Z,993.18
2019-04-27T11:35:59.477Z,993.15
2019-04-27T11:36:59.617Z,993.14
2019-04-27T11:37:59.777Z,993.24
2019-04-27T11:38:59.945Z,993.21
2019-04-27T11:40:00.144Z,993.27
2019-04-27T11:41:00.303Z,993.23
2019-04-27T11:42:01.183Z,993.20
2019-04-27T11:43:01.178Z,993.25
2019-04-27T11:44:01.688Z,993.29
2019-04-27T11:45:01.050Z,993.22
2019-04-27T11:46:01.221Z,993.28
2019-04-27T11:47:01.362Z,993.29
2019-04-27T11:48:02.188Z,993.28
2019-04-27T11:49:01.695Z,993.27
2019-04-27T11:50:01.857Z,993.24
2019-04-27T11:51:01.973Z,993.27
2019-04-27T11:52:02.105Z,993.22
2019-04-27T11:53:03.175Z,993.23
2019-04-27T11:54:02.441Z,993.22
2019-04-27T11:55:02.592Z,993.21
2019-04-27T11:56:02.719Z,993.21
2019-04-27T11:57:02.927Z,993.27
2019-04-27T11:58:03.079Z,993.20
2019-04-27T11:59:03.236Z,993.18
2019-04-27T12:00:03.428Z,993.22
2019-04-27T12:01:03.608Z,993.20
2019-04-27T12:02:03.850Z,993.24
2019-04-27T12:03:04.038Z,993.17
2019-04-27T12:04:05.791Z,993.24
2019-04-27T12:05:07.611Z,993.21
2019-04-27T12:06:04.619Z,993.22
2019-04-27T12:07:06.460Z,993.29
2019-04-27T12:08:06.285Z,993.26
2019-04-27T12:09:06.151Z,993.33
2019-04-27T12:10:05.729Z,993.28
2019-04-27T12:11:06.425Z,993.34
2019-04-27T12:12:14.941Z,993.19
2019-04-27T12:13:07.871Z,993.32
2019-04-27T12:14:06.997Z,993.37
2019-04-27T12:15:06.686Z,993.25
2019-04-27T12:16:06.391Z,993.22
2019-04-27T12:17:06.576Z,993.24
2019-04-27T12:18:08.816Z,993.18
2019-04-27T12:19:07.952Z,993.16
2019-04-27T12:20:07.088Z,993.17
2019-04-27T12:21:07.259Z,993.17
2019-04-27T12:22:07.406Z,993.23
2019-04-27T12:23:07.562Z,993.23
2019-04-27T12:24:07.732Z,993.28
2019-04-27T12:25:07.901Z,993.29
2019-04-27T12:26:08.201Z,993.35
2019-04-27T12:27:08.236Z,993.33
2019-04-27T12:28:09.181Z,993.31
2019-04-27T12:29:08.524Z,993.30
2019-04-27T12:30:08.703Z,993.33